Time;durP1;ratioP1;P1;durP2;ratioP2;P2;SDS_P1;SDS_P2;PMS_P1;PMS_P2;Temp;Humidity;BMP_temperature;BMP_pressure;BME280_temperature;BME280_humidity;BME280_pressure;Samples;Min_cycle;Max_cycle;Signal;HPM_P1;HPM_P2
2023/06/17 00:00:14;;;;;;;4.93;3.37;;;;;14.70;96683.00;;;;5038918;28;20259;-90
2023/06/17 00:03:03;;;;;;;4.83;3.20;;;;;14.60;96695.00;;;;5048946;28;20212;-89
2023/06/17 00:05:54;;;;;;;4.50;3.67;;;;;14.80;96684.00;;;;5049871;28;20231;-89
2023/06/17 00:08:51;;;;;;;4.67;3.37;;;;;14.30;96682.00;;;;5042387;28;20761;-89
2023/06/17 00:11:41;;;;;;;3.80;3.30;;;;;13.80;96668.00;;;;5033319;28;20197;-87
2023/06/17 00:14:30;;;;;;;7.57;3.60;;;;;14.10;96683.00;;;;5049818;28;20228;-88
2023/06/17 00:17:21;;;;;;;6.40;3.67;;;;;13.60;96680.00;;;;5043602;28;20250;-89
2023/06/17 00:20:12;;;;;;;5.07;3.27;;;;;14.20;96685.00;;;;5040289;28;20674;-90
2023/06/17 00:23:06;;;;;;;5.77;3.77;;;;;14.50;96682.00;;;;5049346;28;20224;-90
2023/06/17 00:25:58;;;;;;;4.77;3.60;;;;;14.20;96689.00;;;;5049007;28;20259;-89
2023/06/17 00:28:49;;;;;;;3.97;3.33;;;;;14.20;96676.00;;;;5047800;28;20216;-90
2023/06/17 00:31:41;;;;;;;4.67;3.80;;;;;14.10;96675.00;;;;5047226;28;20204;-90
2023/06/17 00:34:31;;;;;;;4.67;3.60;;;;;14.00;96680.00;;;;5052546;28;20200;-90
2023/06/17 00:37:20;;;;;;;4.60;4.00;;;;;14.00;96682.00;;;;5046035;28;20217;-91
2023/06/17 00:40:12;;;;;;;3.40;3.10;;;;;14.00;96679.00;;;;5045956;28;20270;-89
2023/06/17 00:43:02;;;;;;;5.27;3.63;;;;;14.10;96683.00;;;;5052886;28;20211;-90
2023/06/17 00:45:51;;;;;;;4.00;3.47;;;;;14.10;96677.00;;;;5051993;28;20205;-90
2023/06/17 00:48:41;;;;;;;3.80;3.37;;;;;14.20;96670.00;;;;5054314;28;20242;-89
2023/06/17 00:51:32;;;;;;;4.10;3.67;;;;;14.10;96673.00;;;;5055332;28;20200;-90
2023/06/17 00:54:21;;;;;;;5.17;4.00;;;;;13.90;96678.00;;;;5043121;28;20255;-90
2023/06/17 00:57:15;;;;;;;4.00;3.20;;;;;13.80;96676.00;;;;5049045;28;20225;-90
2023/06/17 01:00:09;;;;;;;4.90;3.53;;;;;13.50;96658.00;;;;5042516;28;20292;-90
2023/06/17 01:03:01;;;;;;;3.40;2.90;;;;;13.80;96668.00;;;;5053552;28;20212;-90
2023/06/17 01:05:56;;;;;;;3.60;3.30;;;;;13.90;96656.00;;;;5048710;28;20213;-90
2023/06/17 01:08:48;;;;;;;5.00;3.73;;;;;13.80;96669.00;;;;5050508;28;20223;-90
2023/06/17 01:11:42;;;;;;;4.40;3.60;;;;;13.60;96671.00;;;;5050990;28;20221;-90
2023/06/17 01:14:40;;;;;;;4.63;3.07;;;;;13.20;96664.00;;;;5045138;28;20205;-91
2023/06/17 01:17:30;;;;;;;3.53;2.93;;;;;13.20;96667.00;;;;5053689;28;20236;-90
2023/06/17 01:20:20;;;;;;;4.23;3.50;;;;;13.50;96661.00;;;;5046939;28;20743;-90
2023/06/17 01:23:12;;;;;;;4.50;2.97;;;;;13.20;96663.00;;;;5047305;28;20215;-88
2023/06/17 01:26:04;;;;;;;5.70;3.60;;;;;12.40;96659.00;;;;5044876;28;20208;-90
2023/06/17 01:28:59;;;;;;;3.90;3.23;;;;;13.00;96678.00;;;;5053211;28;20209;-90
2023/06/17 01:31:49;;;;;;;4.77;4.03;;;;;13.00;96673.00;;;;5051481;28;20208;-91
2023/06/17 01:34:43;;;;;;;3.77;3.43;;;;;12.50;96667.00;;;;5052029;28;20213;-88
2023/06/17 01:37:38;;;;;;;4.90;3.90;;;;;12.00;96656.00;;;;5046438;28;20217;-88
2023/06/17 01:40:30;;;;;;;6.43;3.87;;;;;12.20;96652.00;;;;5042992;28;20238;-91
2023/06/17 01:43:24;;;;;;;4.87;4.37;;;;;12.80;96660.00;;;;5053203;28;20215;-91
2023/06/17 01:46:14;;;;;;;4.63;3.70;;;;;12.80;96654.00;;;;5043115;28;20228;-91
2023/06/17 01:49:03;;;;;;;7.70;4.27;;;;;12.50;96644.00;;;;5046089;28;20212;-89
2023/06/17 01:51:53;;;;;;;5.07;3.77;;;;;12.20;96649.00;;;;5047576;28;20209;-88
2023/06/17 01:54:42;;;;;;;3.93;3.53;;;;;12.20;96649.00;;;;5038994;28;20680;-90
2023/06/17 01:57:32;;;;;;;3.10;2.83;;;;;12.70;96663.00;;;;5053022;28;20223;-91
2023/06/17 02:00:22;;;;;;;3.50;3.20;;;;;12.20;96651.00;;;;5042439;28;20620;-87
2023/06/17 02:03:12;;;;;;;4.40;3.97;;;;;11.60;96643.00;;;;5041811;28;20217;-89
2023/06/17 02:06:03;;;;;;;5.63;3.53;;;;;12.50;96653.00;;;;5045430;28;20384;-91
2023/06/17 02:08:53;;;;;;;4.70;4.00;;;;;12.50;96653.00;;;;5046879;28;20200;-91
2023/06/17 02:11:42;;;;;;;5.43;4.27;;;;;12.50;96650.00;;;;5042041;28;20605;-90
2023/06/17 02:14:33;;;;;;;3.70;3.43;;;;;12.30;96652.00;;;;5044456;28;20200;-89
2023/06/17 02:17:27;;;;;;;3.53;2.93;;;;;12.10;96656.00;;;;5041818;28;20229;-90
2023/06/17 02:20:16;;;;;;;4.53;3.67;;;;;12.50;96651.00;;;;5041244;28;20204;-90
2023/06/17 02:23:05;;;;;;;5.43;3.20;;;;;13.30;96658.00;;;;5049370;28;20201;-90
2023/06/17 02:25:56;;;;;;;4.00;3.33;;;;;13.20;96659.00;;;;5049835;28;20262;-90
2023/06/17 02:28:46;;;;;;;5.23;3.20;;;;;13.20;96667.00;;;;5043690;28;20248;-90
2023/06/17 02:31:40;;;;;;;3.80;3.10;;;;;13.30;96662.00;;;;5035539;28;20620;-89
2023/06/17 02:34:33;;;;;;;4.40;3.27;;;;;13.30;96662.00;;;;5046330;28;20647;-90
2023/06/17 02:37:23;;;;;;;3.50;2.87;;;;;13.20;96658.00;;;;5042505;28;20223;-90
2023/06/17 02:40:13;;;;;;;4.03;3.23;;;;;13.20;96667.00;;;;5046857;28;20284;-91
2023/06/17 02:43:05;;;;;;;7.00;3.30;;;;;13.00;96663.00;;;;5048017;28;20205;-91
2023/06/17 02:45:55;;;;;;;3.77;3.00;;;;;13.10;96653.00;;;;5051936;28;20333;-90
2023/06/17 02:48:44;;;;;;;3.93;3.20;;;;;13.00;96647.00;;;;5046925;28;20232;-90
2023/06/17 02:51:36;;;;;;;4.37;3.33;;;;;13.00;96657.00;;;;5045852;28;20216;-90
2023/06/17 02:54:28;;;;;;;3.30;3.00;;;;;13.00;96663.00;;;;5048476;28;20746;-90
2023/06/17 02:57:17;;;;;;;4.13;3.73;;;;;12.50;96651.00;;;;5041203;28;20613;-91
2023/06/17 03:00:10;;;;;;;3.73;3.23;;;;;12.10;96647.00;;;;5043839;28;20331;-89
2023/06/17 03:03:00;;;;;;;3.67;3.37;;;;;12.20;96645.00;;;;5049232;28;20290;-90
2023/06/17 03:05:50;;;;;;;3.63;3.17;;;;;12.60;96659.00;;;;5050153;28;20209;-90
2023/06/17 03:08:45;;;;;;;4.27;3.30;;;;;12.50;96661.00;;;;5054317;28;20256;-91
2023/06/17 03:11:42;;;;;;;4.23;3.07;;;;;12.00;96644.00;;;;5051041;28;20279;-90
2023/06/17 03:14:33;;;;;;;4.70;3.17;;;;;12.40;96657.00;;;;5051977;28;20193;-90
2023/06/17 03:17:28;;;;;;;3.77;3.23;;;;;12.50;96659.00;;;;5047390;28;20224;-90
2023/06/17 03:20:28;;;;;;;4.17;3.37;;;;;12.60;96659.00;;;;5050857;28;20674;-91
2023/06/17 03:23:20;;;;;;;3.80;3.40;;;;;12.40;96660.00;;;;5052598;28;20205;-90
2023/06/17 03:26:11;;;;;;;4.37;3.30;;;;;12.50;96662.00;;;;5048214;28;20200;-90
2023/06/17 03:29:00;;;;;;;5.90;2.80;;;;;12.50;96663.00;;;;5048383;28;20224;-90
2023/06/17 03:31:51;;;;;;;3.67;3.27;;;;;12.10;96657.00;;;;5045412;28;20262;-91
2023/06/17 03:34:45;;;;;;;4.10;3.70;;;;;12.40;96669.00;;;;5042466;28;20212;-91
2023/06/17 03:37:37;;;;;;;3.63;3.20;;;;;12.40;96667.00;;;;5048721;28;20212;-91
2023/06/17 03:40:28;;;;;;;9.63;3.43;;;;;12.20;96659.00;;;;5047798;28;20201;-91
2023/06/17 03:43:19;;;;;;;5.43;2.77;;;;;12.10;96659.00;;;;5050481;28;20235;-91
2023/06/17 03:46:10;;;;;;;4.17;3.77;;;;;12.20;96664.00;;;;5044544;28;20208;-91
2023/06/17 03:49:00;;;;;;;4.03;3.20;;;;;11.90;96671.00;;;;5043650;28;20266;-87
2023/06/17 03:51:52;;;;;;;4.40;3.47;;;;;12.20;96673.00;;;;5047351;28;20204;-90
2023/06/17 03:54:43;;;;;;;10.57;4.10;;;;;12.50;96675.00;;;;5044332;28;20295;-90
2023/06/17 03:57:32;;;;;;;5.30;3.73;;;;;12.50;96678.00;;;;5040533;28;20270;-90
2023/06/17 04:00:23;;;;;;;5.17;3.40;;;;;11.70;96658.00;;;;5044835;28;20197;-87
2023/06/17 04:03:16;;;;;;;3.70;3.17;;;;;11.70;96659.00;;;;5047632;28;20205;-89
2023/06/17 04:06:07;;;;;;;4.50;3.90;;;;;11.80;96664.00;;;;5048624;28;20250;-90
2023/06/17 04:08:59;;;;;;;4.37;3.97;;;;;12.10;96649.00;;;;5048174;28;20739;-91
2023/06/17 04:11:50;;;;;;;6.70;4.30;;;;;11.90;96656.00;;;;5038423;28;20705;-91
2023/06/17 04:14:41;;;;;;;6.40;4.90;;;;;12.30;96661.00;;;;5048170;28;20568;-90
2023/06/17 04:17:33;;;;;;;4.53;4.10;;;;;12.30;96671.00;;;;5043660;28;20246;-90
2023/06/17 04:20:25;;;;;;;4.37;3.43;;;;;12.20;96668.00;;;;5038666;28;20667;-90
2023/06/17 04:23:33;;;;;;;3.97;3.10;;;;;12.80;96666.00;;;;5038269;28;20734;-90
2023/06/17 04:26:31;;;;;;;4.77;3.67;;;;;13.00;96673.00;;;;5041137;28;20201;-90
2023/06/17 04:29:23;;;;;;;5.50;4.47;;;;;12.40;96660.00;;;;5046597;28;20220;-90
2023/06/17 04:32:22;;;;;;;4.00;3.37;;;;;13.10;96667.00;;;;5047483;28;20216;-91
2023/06/17 04:35:13;;;;;;;3.47;3.10;;;;;13.30;96671.00;;;;5050146;28;20575;-90
2023/06/17 04:38:11;;;;;;;7.10;2.80;;;;;13.60;96669.00;;;;5042616;28;20226;-91
2023/06/17 04:41:14;;;;;;;6.10;3.30;;;;;13.80;96676.00;;;;5053520;28;20270;-92
2023/06/17 04:44:25;;;;;;;3.07;2.73;;;;;13.90;96668.00;;;;5048416;28;20201;-91
2023/06/17 04:47:20;;;;;;;4.07;3.10;;;;;14.00;96671.00;;;;5047595;28;20403;-92
2023/06/17 04:50:17;;;;;;;3.60;2.80;;;;;13.80;96665.00;;;;5051213;28;20206;-90
2023/06/17 04:53:14;;;;;;;3.83;2.60;;;;;14.10;96657.00;;;;5041888;28;20283;-90
2023/06/17 04:56:12;;;;;;;3.93;3.53;;;;;14.30;96656.00;;;;5051395;28;20208;-91
2023/06/17 04:59:04;;;;;;;3.70;2.73;;;;;14.30;96659.00;;;;5049647;28;20205;-90
2023/06/17 05:01:53;;;;;;;9.17;3.07;;;;;14.20;96656.00;;;;5047806;28;20212;-89
2023/06/17 05:04:42;;;;;;;3.93;3.07;;;;;14.30;96669.00;;;;5042137;28;20233;-90
2023/06/17 05:07:33;;;;;;;3.17;2.57;;;;;14.30;96664.00;;;;5038932;28;20220;-90
2023/06/17 05:10:23;;;;;;;5.07;3.23;;;;;14.30;96668.00;;;;5052415;28;20287;-90
2023/06/17 05:13:12;;;;;;;2.77;2.57;;;;;14.40;96662.00;;;;5045847;28;20213;-89
2023/06/17 05:16:01;;;;;;;5.27;3.10;;;;;14.30;96665.00;;;;5053632;28;20197;-88
2023/06/17 05:18:53;;;;;;;5.13;3.10;;;;;14.70;96674.00;;;;5045470;28;20249;-92
2023/06/17 05:21:46;;;;;;;3.03;2.77;;;;;15.10;96668.00;;;;5045899;28;20194;-91
2023/06/17 05:24:46;;;;;;;3.77;3.30;;;;;15.30;96662.00;;;;5053333;28;20197;-91
2023/06/17 05:27:39;;;;;;;4.07;2.80;;;;;15.60;96661.00;;;;5048496;28;20721;-92
2023/06/17 05:30:29;;;;;;;3.37;3.10;;;;;15.90;96660.00;;;;5048108;28;20201;-91
2023/06/17 05:33:22;;;;;;;3.23;2.93;;;;;16.20;96651.00;;;;5046679;28;20284;-91
2023/06/17 05:36:12;;;;;;;7.10;3.80;;;;;15.90;96653.00;;;;5041251;28;20205;-89
2023/06/17 05:39:05;;;;;;;14.07;4.53;;;;;16.20;96653.00;;;;5044288;28;20229;-91
2023/06/17 05:42:10;;;;;;;7.67;4.57;;;;;16.70;96654.00;;;;5049869;28;20227;-92
2023/06/17 05:45:10;;;;;;;6.87;3.77;;;;;17.00;96653.00;;;;5053105;28;20211;-91
2023/06/17 05:48:09;;;;;;;4.97;3.77;;;;;17.30;96663.00;;;;5059246;28;20236;-92
2023/06/17 05:50:58;;;;;;;8.43;4.70;;;;;17.50;96660.00;;;;5054533;28;20225;-92
2023/06/17 05:53:50;;;;;;;13.07;4.33;;;;;17.40;96653.00;;;;5048714;28;20213;-92
2023/06/17 05:56:39;;;;;;;13.73;5.47;;;;;17.20;96657.00;;;;5044714;28;20200;-91
2023/06/17 05:59:31;;;;;;;15.57;5.10;;;;;17.70;96658.00;;;;5052794;28;20205;-92
2023/06/17 06:02:21;;;;;;;10.53;5.30;;;;;18.10;96651.00;;;;5048823;28;20206;-91
2023/06/17 06:05:11;;;;;;;10.40;5.20;;;;;18.30;96661.00;;;;5054246;28;20208;-92
2023/06/17 06:08:04;;;;;;;5.93;4.13;;;;;18.20;96663.00;;;;5061227;28;20733;-92
2023/06/17 06:14:24;;;;;;;9.90;5.77;;;;;18.60;96675.00;;;;5037080;28;20208;-93
2023/06/17 06:17:23;;;;;;;10.33;5.50;;;;;18.20;96671.00;;;;5056099;28;20226;-92
2023/06/17 06:20:13;;;;;;;14.33;5.47;;;;;18.10;96682.00;;;;5054485;28;20236;-92
2023/06/17 06:23:09;;;;;;;9.40;5.50;;;;;18.40;96678.00;;;;5055485;28;20219;-93
2023/06/17 06:26:05;;;;;;;16.67;5.80;;;;;18.60;96674.00;;;;5062119;28;20243;-91
2023/06/17 06:29:04;;;;;;;8.97;4.53;;;;;18.70;96675.00;;;;5060694;28;20252;-92
2023/06/17 06:31:58;;;;;;;15.43;5.20;;;;;18.50;96687.00;;;;5056755;28;20212;-88
2023/06/17 06:34:49;;;;;;;10.93;4.60;;;;;18.50;96684.00;;;;5046941;28;20626;-89
2023/06/17 06:37:38;;;;;;;10.23;4.70;;;;;18.60;96687.00;;;;5070350;23;20238;-73
2023/06/17 06:40:28;;;;;;;10.47;4.80;;;;;18.90;96686.00;;;;5082039;28;20205;-73
2023/06/17 06:43:17;;;;;;;6.90;4.53;;;;;19.20;96699.00;;;;5082598;28;20207;-73
2023/06/17 06:46:07;;;;;;;9.30;5.07;;;;;19.40;96702.00;;;;5082822;28;20208;-73
2023/06/17 06:48:56;;;;;;;7.57;4.33;;;;;19.40;96693.00;;;;5087176;28;20745;-73
2023/06/17 06:51:47;;;;;;;16.83;5.17;;;;;19.50;96696.00;;;;5084194;28;20199;-73
2023/06/17 06:54:36;;;;;;;13.63;7.43;;;;;19.90;96707.00;;;;5087473;28;20956;-73
2023/06/17 06:57:25;;;;;;;14.03;4.57;;;;;20.00;96709.00;;;;5082143;28;20724;-73
2023/06/17 07:00:15;;;;;;;10.07;5.40;;;;;20.00;96713.00;;;;5086144;28;20807;-73
2023/06/17 07:03:05;;;;;;;17.73;4.90;;;;;19.40;96709.00;;;;5083811;28;20203;-74
2023/06/17 07:05:54;;;;;;;11.70;5.17;;;;;19.50;96716.00;;;;5084844;28;20203;-74
2023/06/17 07:08:44;;;;;;;11.37;5.47;;;;;19.60;96713.00;;;;5078906;28;20223;-73
2023/06/17 07:11:34;;;;;;;13.10;5.63;;;;;19.40;96713.00;;;;5080855;28;20704;-73
2023/06/17 07:14:23;;;;;;;14.27;5.53;;;;;19.80;96716.00;;;;5082837;28;20219;-73
2023/06/17 07:17:12;;;;;;;15.87;5.33;;;;;19.70;96713.00;;;;5082802;28;20207;-73
2023/06/17 07:20:05;;;;;;;13.73;4.93;;;;;20.10;96728.00;;;;5079875;28;20280;-74
2023/06/17 07:22:54;;;;;;;7.50;4.77;;;;;20.30;96728.00;;;;5087558;28;20671;-74
2023/06/17 07:25:44;;;;;;;16.83;5.13;;;;;20.30;96712.00;;;;5083615;28;20203;-74
2023/06/17 07:28:34;;;;;;;10.13;5.27;;;;;20.60;96722.00;;;;5080896;28;20211;-74
2023/06/17 07:31:24;;;;;;;14.03;5.00;;;;;20.90;96730.00;;;;5078257;28;20231;-74
2023/06/17 07:34:13;;;;;;;9.50;4.57;;;;;20.40;96721.00;;;;5076745;28;20231;-76
2023/06/17 07:37:02;;;;;;;12.13;4.70;;;;;20.30;96717.00;;;;5081834;28;20211;-75
2023/06/17 07:39:52;;;;;;;12.10;4.53;;;;;20.40;96715.00;;;;5078925;28;20230;-76
2023/06/17 07:42:42;;;;;;;8.70;5.07;;;;;20.60;96719.00;;;;5074277;28;20260;-76
2023/06/17 07:45:32;;;;;;;6.43;5.07;;;;;20.90;96724.00;;;;5086502;28;20325;-76
2023/06/17 07:48:21;;;;;;;11.13;4.87;;;;;21.30;96726.00;;;;5088260;28;20890;-77
2023/06/17 07:51:11;;;;;;;12.13;4.80;;;;;21.30;96732.00;;;;5080958;28;20230;-77
2023/06/17 07:54:01;;;;;;;12.27;4.50;;;;;21.40;96725.00;;;;5084026;28;20207;-74
2023/06/17 07:56:50;;;;;;;16.33;4.90;;;;;21.50;96730.00;;;;5076776;28;20261;-71
2023/06/17 07:59:41;;;;;;;18.07;6.00;;;;;21.20;96725.00;;;;5087579;28;20225;-71
2023/06/17 08:02:30;;;;;;;7.40;4.40;;;;;21.40;96728.00;;;;5084931;28;20195;-74
2023/06/17 08:05:19;;;;;;;4.53;3.70;;;;;21.60;96729.00;;;;5086699;28;20248;-75
2023/06/17 08:08:08;;;;;;;9.50;4.63;;;;;21.80;96725.00;;;;5082848;28;20598;-74
2023/06/17 08:10:57;;;;;;;6.17;4.37;;;;;22.10;96722.00;;;;5080231;28;20229;-74
2023/06/17 08:13:46;;;;;;;6.10;3.73;;;;;22.30;96715.00;;;;5082889;28;20211;-74
2023/06/17 08:16:37;;;;;;;7.47;3.60;;;;;21.50;96717.00;;;;5082126;28;20211;-74
2023/06/17 08:19:26;;;;;;;6.77;4.27;;;;;21.50;96728.00;;;;5087037;28;20792;-75
2023/06/17 08:22:15;;;;;;;5.93;4.20;;;;;21.90;96718.00;;;;5082060;28;20206;-73
2023/06/17 08:25:05;;;;;;;4.00;3.60;;;;;21.60;96722.00;;;;5080588;28;20203;-75
2023/06/17 08:27:54;;;;;;;7.30;4.00;;;;;21.40;96723.00;;;;5081215;28;20702;-75
2023/06/17 08:30:43;;;;;;;6.40;3.70;;;;;22.00;96713.00;;;;5079924;28;20215;-75
2023/06/17 08:33:34;;;;;;;4.87;3.23;;;;;22.20;96724.00;;;;5087261;28;20196;-76
2023/06/17 08:36:23;;;;;;;6.37;4.00;;;;;22.80;96720.00;;;;5075334;28;20203;-75
2023/06/17 08:39:12;;;;;;;7.03;3.40;;;;;23.60;96693.00;;;;5081352;28;20223;-73
2023/06/17 08:42:01;;;;;;;3.30;2.83;;;;;24.10;96701.00;;;;5088284;28;20529;-72
2023/06/17 08:44:50;;;;;;;3.67;2.90;;;;;24.30;96715.00;;;;5088677;28;20199;-75
2023/06/17 08:47:40;;;;;;;3.23;2.93;;;;;24.80;96701.00;;;;5085975;22;20268;-91
2023/06/17 08:51:15;;;;;;;5.23;2.63;;;;;24.70;96692.00;;;;5046924;28;20220;-90
2023/06/17 08:54:06;;;;;;;3.23;2.20;;;;;25.30;96704.00;;;;5029098;28;20681;-90
2023/06/17 08:56:55;;;;;;;2.53;2.33;;;;;24.90;96686.00;;;;5047781;28;20229;-91
2023/06/17 08:59:45;;;;;;;2.30;2.10;;;;;23.60;96692.00;;;;5035526;28;20221;-89
2023/06/17 09:02:35;;;;;;;3.00;2.20;;;;;23.90;96675.00;;;;5030808;28;20221;-88
2023/06/17 09:05:24;;;;;;;2.43;2.23;;;;;25.20;96685.00;;;;5031803;28;20585;-91
2023/06/17 09:08:16;;;;;;;2.97;2.70;;;;;25.90;96680.00;;;;5029477;28;20287;-91
2023/06/17 09:11:07;;;;;;;3.87;2.23;;;;;26.70;96685.00;;;;5030863;28;20224;-90
2023/06/17 09:13:58;;;;;;;2.70;1.90;;;;;26.20;96679.00;;;;5032091;28;20212;-90
2023/06/17 09:16:47;;;;;;;2.30;2.10;;;;;26.30;96656.00;;;;5030249;28;20200;-89
2023/06/17 09:19:41;;;;;;;3.07;2.40;;;;;26.40;96674.00;;;;5030816;28;20244;-91
2023/06/17 09:22:30;;;;;;;2.80;2.53;;;;;26.90;96662.00;;;;5029911;28;20968;-93
2023/06/17 09:29:01;;;;;;;2.97;2.70;;;;;25.50;96674.00;;;;5051294;22;20253;-72
2023/06/17 09:31:51;;;;;;;4.50;2.40;;;;;25.70;96660.00;;;;5024285;28;20657;-70
2023/06/17 09:34:50;;;;;;;2.87;2.30;;;;;27.30;96678.00;;;;5030818;28;20198;-72
2023/06/17 09:37:39;;;;;;;4.27;2.90;;;;;27.40;96669.00;;;;5025988;28;20631;-74
2023/06/17 09:40:34;;;;;;;3.90;2.43;;;;;28.50;96673.00;;;;5017622;28;20233;-75
2023/06/17 09:43:25;;;;;;;3.33;3.03;;;;;28.10;96661.00;;;;5017265;28;20626;-75
2023/06/17 09:46:29;;;;;;;3.50;2.83;;;;;27.90;96653.00;;;;5015976;28;20215;-75
2023/06/17 09:49:23;;;;;;;4.60;2.80;;;;;28.60;96650.00;;;;5019013;28;20306;-75
2023/06/17 09:52:12;;;;;;;3.57;2.77;;;;;29.60;96647.00;;;;5011120;28;20228;-75
2023/06/17 09:55:02;;;;;;;3.27;2.93;;;;;29.70;96644.00;;;;5014566;28;20213;-75
2023/06/17 09:57:53;;;;;;;3.73;2.77;;;;;29.10;96632.00;;;;5023688;28;20228;-75
2023/06/17 10:00:45;;;;;;;6.30;3.10;;;;;29.30;96666.00;;;;5029497;28;20627;-76
2023/06/17 10:03:37;;;;;;;2.90;2.60;;;;;27.80;96671.00;;;;5023499;28;20259;-75
2023/06/17 10:06:28;;;;;;;2.97;2.50;;;;;27.20;96673.00;;;;5020324;28;20206;-75
2023/06/17 10:09:18;;;;;;;3.73;2.67;;;;;27.60;96632.00;;;;5015274;28;20229;-75
2023/06/17 10:12:09;;;;;;;3.70;2.70;;;;;28.70;96656.00;;;;5027252;28;20236;-74
2023/06/17 10:14:59;;;;;;;5.00;3.23;;;;;28.40;96635.00;;;;5026547;28;20211;-73
2023/06/17 10:17:50;;;;;;;4.37;3.10;;;;;28.10;96662.00;;;;5021744;28;20235;-75
2023/06/17 10:20:41;;;;;;;5.03;3.93;;;;;27.50;96668.00;;;;5028276;28;20284;-74
2023/06/17 10:23:30;;;;;;;3.83;3.43;;;;;26.90;96673.00;;;;5022045;28;20660;-74
2023/06/17 10:26:21;;;;;;;6.97;2.70;;;;;26.90;96668.00;;;;5034621;28;20207;-74
2023/06/17 10:29:11;;;;;;;6.13;3.70;;;;;26.10;96663.00;;;;5032007;28;20234;-73
2023/06/17 10:32:17;;;;;;;7.63;3.83;;;;;26.10;96620.00;;;;5020435;28;20228;-73
2023/06/17 10:35:11;;;;;;;3.33;2.93;;;;;27.80;96657.00;;;;5022726;28;20694;-75
2023/06/17 10:38:02;;;;;;;3.63;3.33;;;;;28.10;96608.00;;;;5033060;28;20230;-73
2023/06/17 10:40:51;;;;;;;3.50;3.00;;;;;28.30;96647.00;;;;5027027;28;20229;-72
2023/06/17 10:43:43;;;;;;;3.67;3.37;;;;;28.10;96605.00;;;;5030818;28;20200;-75
2023/06/17 10:46:33;;;;;;;5.93;3.00;;;;;28.70;96595.00;;;;5027098;28;20203;-74
2023/06/17 10:49:23;;;;;;;3.77;3.37;;;;;29.10;96614.00;;;;5025277;28;20224;-73
2023/06/17 10:52:14;;;;;;;4.23;3.83;;;;;28.60;96605.00;;;;5025761;28;20239;-75
2023/06/17 10:55:05;;;;;;;4.20;3.10;;;;;29.20;96589.00;;;;5035000;28;20675;-75
2023/06/17 10:57:59;;;;;;;3.40;3.00;;;;;27.40;96629.00;;;;5026590;28;20284;-70
2023/06/17 11:00:57;;;;;;;5.10;3.13;;;;;28.60;96584.00;;;;5027386;28;20215;-75
2023/06/17 11:03:46;;;;;;;3.53;2.83;;;;;30.00;96645.00;;;;5020056;28;20212;-76
2023/06/17 11:06:36;;;;;;;5.03;3.07;;;;;30.30;96593.00;;;;5026632;28;20639;-77
2023/06/17 11:09:26;;;;;;;6.00;3.53;;;;;31.20;96623.00;;;;5026345;28;20234;-76
2023/06/17 11:12:16;;;;;;;3.57;3.27;;;;;31.40;96586.00;;;;5019328;28;20735;-75
2023/06/17 11:15:08;;;;;;;5.77;2.93;;;;;30.20;96621.00;;;;5022050;28;20553;-74
2023/06/17 11:18:01;;;;;;;4.90;3.50;;;;;28.80;96612.00;;;;5021526;28;20728;-73
2023/06/17 11:20:50;;;;;;;3.73;3.43;;;;;28.90;96628.00;;;;5023968;28;20215;-74
2023/06/17 11:23:42;;;;;;;3.80;3.40;;;;;27.90;96623.00;;;;5019198;28;20674;-73
2023/06/17 11:26:33;;;;;;;4.37;3.27;;;;;25.30;96628.00;;;;5019626;28;20205;-74
2023/06/17 11:29:25;;;;;;;4.37;3.40;;;;;27.30;96640.00;;;;5014362;28;20361;-74
2023/06/17 11:32:15;;;;;;;4.33;3.10;;;;;28.00;96643.00;;;;5017041;28;20694;-75
2023/06/17 11:35:04;;;;;;;7.83;3.33;;;;;27.60;96638.00;;;;5018232;28;20906;-72
2023/06/17 11:37:53;;;;;;;3.93;3.17;;;;;25.90;96638.00;;;;5017097;28;20280;-68
2023/06/17 11:40:43;;;;;;;4.30;3.90;;;;;25.60;96635.00;;;;5022525;28;20278;-71
2023/06/17 11:43:32;;;;;;;4.43;3.43;;;;;25.60;96650.00;;;;5019065;28;20687;-73
2023/06/17 11:46:23;;;;;;;5.73;3.43;;;;;26.30;96567.00;;;;5014299;28;20294;-71
2023/06/17 11:49:13;;;;;;;3.83;3.00;;;;;27.00;96628.00;;;;5015084;28;20244;-72
2023/06/17 11:52:06;;;;;;;4.17;2.93;;;;;25.90;96631.00;;;;5016191;28;20226;-72
2023/06/17 11:54:56;;;;;;;3.40;3.10;;;;;26.20;96589.00;;;;5016221;28;20731;-68
2023/06/17 11:57:46;;;;;;;4.03;3.17;;;;;26.90;96623.00;;;;5026905;28;20214;-70
2023/06/17 12:00:36;;;;;;;5.53;3.27;;;;;27.00;96668.00;;;;5027982;28;20205;-72
2023/06/17 12:03:26;;;;;;;2.70;2.30;;;;;27.50;96651.00;;;;5025499;28;20205;-77
2023/06/17 12:06:20;;;;;;;6.40;2.97;;;;;27.00;96651.00;;;;5024200;28;20205;-74
2023/06/17 12:09:10;;;;;;;4.17;3.37;;;;;27.00;96660.00;;;;5014286;28;20705;-73
2023/06/17 12:12:01;;;;;;;4.13;3.30;;;;;25.80;96648.00;;;;5020921;28;20309;-76
2023/06/17 12:14:50;;;;;;;5.67;2.93;;;;;26.60;96647.00;;;;5020863;28;20276;-74
2023/06/17 12:17:40;;;;;;;5.40;3.80;;;;;26.90;96651.00;;;;5028455;28;20236;-74
2023/06/17 12:20:31;;;;;;;4.60;3.20;;;;;26.80;96639.00;;;;5031248;28;20205;-72
2023/06/17 12:23:20;;;;;;;4.77;2.63;;;;;26.50;96651.00;;;;5020790;28;20202;-72
2023/06/17 12:26:09;;;;;;;2.90;2.60;;;;;26.20;96644.00;;;;5023171;28;20250;-71
2023/06/17 12:28:59;;;;;;;4.63;3.50;;;;;26.50;96653.00;;;;5022007;28;20241;-74
2023/06/17 12:31:48;;;;;;;3.97;2.73;;;;;26.20;96643.00;;;;5022014;28;20604;-74
2023/06/17 12:34:37;;;;;;;4.57;3.17;;;;;26.60;96662.00;;;;5028961;28;20615;-74
2023/06/17 12:37:31;;;;;;;7.60;2.97;;;;;26.70;96649.00;;;;5037009;28;20288;-74
2023/06/17 12:40:21;;;;;;;3.50;2.60;;;;;26.40;96655.00;;;;5025682;28;20832;-74
2023/06/17 12:43:11;;;;;;;4.30;2.87;;;;;26.70;96668.00;;;;5027816;28;20594;-74
2023/06/17 12:46:02;;;;;;;3.33;2.90;;;;;25.90;96657.00;;;;5028499;28;20611;-72
2023/06/17 12:48:52;;;;;;;4.50;3.00;;;;;25.90;96651.00;;;;5019777;28;20222;-74
2023/06/17 12:51:41;;;;;;;3.50;2.40;;;;;25.70;96661.00;;;;5018604;28;20212;-74
2023/06/17 12:54:31;;;;;;;15.23;4.80;;;;;25.80;96646.00;;;;5027006;28;20201;-73
2023/06/17 12:57:20;;;;;;;2.03;1.80;;;;;26.30;96650.00;;;;5026905;28;20201;-73
2023/06/17 13:00:12;;;;;;;4.50;2.63;;;;;26.20;96602.00;;;;5035940;28;20210;-72
2023/06/17 13:03:02;;;;;;;3.60;2.80;;;;;26.60;96642.00;;;;5027453;28;20205;-74
2023/06/17 13:05:52;;;;;;;2.57;2.20;;;;;26.90;96654.00;;;;5027186;28;20337;-74
2023/06/17 13:08:41;;;;;;;3.23;2.43;;;;;26.60;96640.00;;;;5022374;28;20225;-75
2023/06/17 13:11:31;;;;;;;4.63;3.00;;;;;26.90;96639.00;;;;5024079;28;20232;-73
2023/06/17 13:14:21;;;;;;;3.00;2.70;;;;;29.00;96560.00;;;;5022279;28;20197;-74
2023/06/17 13:17:10;;;;;;;5.23;3.07;;;;;28.60;96623.00;;;;5028032;28;20225;-70
2023/06/17 13:20:00;;;;;;;3.10;2.70;;;;;28.30;96629.00;;;;5021061;28;20228;-73
2023/06/17 13:22:49;;;;;;;3.60;2.90;;;;;28.50;96572.00;;;;5025001;28;20338;-74
2023/06/17 13:25:38;;;;;;;5.00;2.27;;;;;30.90;96563.00;;;;5027666;28;20215;-75
2023/06/17 13:28:28;;;;;;;3.07;2.30;;;;;32.10;96571.00;;;;5025540;28;20283;-76
2023/06/17 13:31:17;;;;;;;4.20;3.13;;;;;30.80;96575.00;;;;5017788;28;20207;-75
2023/06/17 13:34:07;;;;;;;3.10;2.73;;;27.90;58.20;32.90;96562.00;;;;5027367;28;20245;-75
2023/06/17 13:36:57;;;;;;;2.45;2.20;;;28.20;58.50;32.70;96573.00;;;;5023409;28;20220;-74
2023/06/17 13:39:46;;;;;;;3.28;2.97;;;28.80;56.90;33.80;96564.00;;;;5033617;28;20204;-74
2023/06/17 13:42:35;;;;;;;3.78;2.65;;;29.30;57.60;32.20;96559.00;;;;5024386;28;20254;-75
2023/06/17 13:45:26;;;;;;;5.90;2.65;;;29.70;55.30;33.30;96557.00;;;;5020407;28;20671;-76
2023/06/17 13:48:15;;;;;;;3.13;2.65;;;30.00;56.20;32.20;96572.00;;;;5029124;28;20231;-70
2023/06/17 13:51:04;;;;;;;8.13;2.38;;;30.30;54.00;34.10;96560.00;;;;5029575;28;20832;-74
2023/06/17 13:53:53;;;;;;;2.75;2.55;;;30.40;55.20;35.00;96558.00;;;;5028809;28;20225;-74
2023/06/17 13:56:42;;;;;;;3.63;3.03;;;30.80;56.00;35.10;96542.00;;;;5027546;28;20206;-73
2023/06/17 13:59:34;;;;;;;3.35;3.00;;;31.10;54.20;34.50;96551.00;;;;5023007;28;20228;-74
2023/06/17 14:02:25;;;;;;;3.65;3.35;;;31.30;52.10;35.10;96546.00;;;;5030585;28;20211;-75
2023/06/17 14:05:13;;;;;;;3.13;2.80;;;31.40;53.20;35.20;96548.00;;;;5026290;28;20224;-75
2023/06/17 14:08:02;;;;;;;3.50;3.20;;;31.70;52.10;35.10;96550.00;;;;5023436;28;20388;-74
2023/06/17 14:10:51;;;;;;;4.20;3.10;;;31.80;50.70;35.20;96546.00;;;;5017216;28;20414;-75
2023/06/17 14:13:40;;;;;;;3.03;2.80;;;31.90;51.30;34.80;96552.00;;;;5024028;28;20566;-75
2023/06/17 14:16:31;;;;;;;5.63;3.67;;;31.70;51.70;34.90;96551.00;;;;5015326;28;20197;-75